sensor_id;sensor_type;location;lat;lon;timestamp;temperature;humidity
10304;DHT22;5197;48.152;8.590;2023-02-03T00:01:49;4.10;25.70
10304;DHT22;5197;48.152;8.590;2023-02-03T00:04:16;4.10;25.60
10304;DHT22;5197;48.152;8.590;2023-02-03T00:06:43;4.10;25.40
10304;DHT22;5197;48.152;8.590;2023-02-03T00:09:10;4.20;25.60
10304;DHT22;5197;48.152;8.590;2023-02-03T00:11:36;4.10;25.60
10304;DHT22;5197;48.152;8.590;2023-02-03T00:14:03;4.20;25.60
10304;DHT22;5197;48.152;8.590;2023-02-03T00:16:31;4.20;25.40
10304;DHT22;5197;48.152;8.590;2023-02-03T00:18:57;4.20;25.40
10304;DHT22;5197;48.152;8.590;2023-02-03T00:21:24;4.20;25.30
10304;DHT22;5197;48.152;8.590;2023-02-03T00:23:52;4.20;25.40
10304;DHT22;5197;48.152;8.590;2023-02-03T00:26:20;4.10;25.20
10304;DHT22;5197;48.152;8.590;2023-02-03T00:28:47;4.20;25.40
10304;DHT22;5197;48.152;8.590;2023-02-03T00:33:42;4.20;25.20
10304;DHT22;5197;48.152;8.590;2023-02-03T00:36:09;4.20;25.10
10304;DHT22;5197;48.152;8.590;2023-02-03T00:38:36;4.20;26.00
10304;DHT22;5197;48.152;8.590;2023-02-03T00:41:03;4.20;24.90
10304;DHT22;5197;48.152;8.590;2023-02-03T00:43:30;4.20;24.90
10304;DHT22;5197;48.152;8.590;2023-02-03T00:45:57;4.20;24.90
10304;DHT22;5197;48.152;8.590;2023-02-03T00:48:24;4.20;24.80
10304;DHT22;5197;48.152;8.590;2023-02-03T00:50:50;4.20;24.80
10304;DHT22;5197;48.152;8.590;2023-02-03T00:53:17;4.20;24.80
10304;DHT22;5197;48.152;8.590;2023-02-03T00:55:44;4.20;24.80
10304;DHT22;5197;48.152;8.590;2023-02-03T00:58:11;4.20;24.80
10304;DHT22;5197;48.152;8.590;2023-02-03T01:00:38;4.20;24.80
10304;DHT22;5197;48.152;8.590;2023-02-03T01:03:04;4.20;24.80
10304;DHT22;5197;48.152;8.590;2023-02-03T01:05:31;4.20;25.00
10304;DHT22;5197;48.152;8.590;2023-02-03T01:08:00;4.20;24.90
10304;DHT22;5197;48.152;8.590;2023-02-03T01:10:27;4.20;24.90
10304;DHT22;5197;48.152;8.590;2023-02-03T01:12:55;4.20;25.00
10304;DHT22;5197;48.152;8.590;2023-02-03T01:15:22;4.20;25.00
10304;DHT22;5197;48.152;8.590;2023-02-03T01:17:48;4.10;24.90
10304;DHT22;5197;48.152;8.590;2023-02-03T01:20:15;4.10;25.10
10304;DHT22;5197;48.152;8.590;2023-02-03T01:22:42;4.10;25.10
10304;DHT22;5197;48.152;8.590;2023-02-03T01:25:09;4.10;25.10
10304;DHT22;5197;48.152;8.590;2023-02-03T01:27:36;4.10;25.10
10304;DHT22;5197;48.152;8.590;2023-02-03T01:30:03;4.10;25.20
10304;DHT22;5197;48.152;8.590;2023-02-03T01:32:30;4.20;25.20
10304;DHT22;5197;48.152;8.590;2023-02-03T01:34:57;4.30;25.40
10304;DHT22;5197;48.152;8.590;2023-02-03T01:37:23;4.10;25.10
10304;DHT22;5197;48.152;8.590;2023-02-03T01:39:50;4.10;25.20
10304;DHT22;5197;48.152;8.590;2023-02-03T01:42:17;6.00;26.50
10304;DHT22;5197;48.152;8.590;2023-02-03T01:47:27;4.10;25.50
10304;DHT22;5197;48.152;8.590;2023-02-03T01:52:48;4.10;25.40
10304;DHT22;5197;48.152;8.590;2023-02-03T01:55:21;4.10;25.50
10304;DHT22;5197;48.152;8.590;2023-02-03T01:57:56;4.10;25.70
10304;DHT22;5197;48.152;8.590;2023-02-03T02:00:24;4.00;25.70
10304;DHT22;5197;48.152;8.590;2023-02-03T02:02:52;4.00;25.80
10304;DHT22;5197;48.152;8.590;2023-02-03T02:05:30;4.00;25.80
10304;DHT22;5197;48.152;8.590;2023-02-03T02:07:59;4.00;25.80
10304;DHT22;5197;48.152;8.590;2023-02-03T02:10:31;4.00;26.00
10304;DHT22;5197;48.152;8.590;2023-02-03T02:13:00;4.00;26.20
10304;DHT22;5197;48.152;8.590;2023-02-03T02:15:46;4.00;26.20
10304;DHT22;5197;48.152;8.590;2023-02-03T02:32:12;3.90;26.70
10304;DHT22;5197;48.152;8.590;2023-02-03T02:40:53;3.90;26.70
10304;DHT22;5197;48.152;8.590;2023-02-03T02:43:31;3.90;26.90
10304;DHT22;5197;48.152;8.590;2023-02-03T02:46:09;3.80;26.90
10304;DHT22;5197;48.152;8.590;2023-02-03T02:48:57;3.90;27.00
10304;DHT22;5197;48.152;8.590;2023-02-03T02:51:27;3.90;26.80
10304;DHT22;5197;48.152;8.590;2023-02-03T02:54:00;3.80;26.90
10304;DHT22;5197;48.152;8.590;2023-02-03T02:56:30;3.80;26.90
10304;DHT22;5197;48.152;8.590;2023-02-03T02:59:00;3.90;27.20
10304;DHT22;5197;48.152;8.590;2023-02-03T03:01:28;3.80;26.90
10304;DHT22;5197;48.152;8.590;2023-02-03T03:03:55;3.80;27.00
10304;DHT22;5197;48.152;8.590;2023-02-03T03:06:30;3.80;27.00
10304;DHT22;5197;48.152;8.590;2023-02-03T03:09:06;3.80;27.10
10304;DHT22;5197;48.152;8.590;2023-02-03T03:11:44;3.80;27.20
10304;DHT22;5197;48.152;8.590;2023-02-03T03:14:15;3.80;27.30
10304;DHT22;5197;48.152;8.590;2023-02-03T03:16:47;3.70;27.40
10304;DHT22;5197;48.152;8.590;2023-02-03T03:19:19;3.70;27.50
10304;DHT22;5197;48.152;8.590;2023-02-03T03:21:51;3.70;27.50
10304;DHT22;5197;48.152;8.590;2023-02-03T03:24:30;3.70;28.50
10304;DHT22;5197;48.152;8.590;2023-02-03T03:27:29;3.70;27.60
10304;DHT22;5197;48.152;8.590;2023-02-03T03:32:30;3.70;27.80
10304;DHT22;5197;48.152;8.590;2023-02-03T03:34:59;3.70;27.90
10304;DHT22;5197;48.152;8.590;2023-02-03T03:37:33;3.70;27.90
10304;DHT22;5197;48.152;8.590;2023-02-03T03:40:21;3.70;27.90
10304;DHT22;5197;48.152;8.590;2023-02-03T03:43:10;3.70;27.90
10304;DHT22;5197;48.152;8.590;2023-02-03T03:45:53;3.70;28.00
10304;DHT22;5197;48.152;8.590;2023-02-03T03:48:52;3.70;28.00
10304;DHT22;5197;48.152;8.590;2023-02-03T03:51:33;3.70;27.90
10304;DHT22;5197;48.152;8.590;2023-02-03T03:54:04;3.60;28.30
10304;DHT22;5197;48.152;8.590;2023-02-03T03:59:23;3.60;28.40
10304;DHT22;5197;48.152;8.590;2023-02-03T04:01:52;3.60;28.60
10304;DHT22;5197;48.152;8.590;2023-02-03T04:04:20;3.50;28.60
10304;DHT22;5197;48.152;8.590;2023-02-03T04:06:48;3.50;28.50
10304;DHT22;5197;48.152;8.590;2023-02-03T04:09:15;3.50;28.70
10304;DHT22;5197;48.152;8.590;2023-02-03T04:11:43;3.50;28.80
10304;DHT22;5197;48.152;8.590;2023-02-03T04:14:33;3.50;28.90
10304;DHT22;5197;48.152;8.590;2023-02-03T04:17:00;3.50;29.00
10304;DHT22;5197;48.152;8.590;2023-02-03T04:19:27;3.50;29.00
10304;DHT22;5197;48.152;8.590;2023-02-03T04:21:54;3.50;29.10
10304;DHT22;5197;48.152;8.590;2023-02-03T04:24:21;3.50;29.10
10304;DHT22;5197;48.152;8.590;2023-02-03T04:26:48;3.40;29.20
10304;DHT22;5197;48.152;8.590;2023-02-03T04:29:15;3.40;29.20
10304;DHT22;5197;48.152;8.590;2023-02-03T04:31:41;3.40;29.40
10304;DHT22;5197;48.152;8.590;2023-02-03T04:34:08;3.40;29.30
10304;DHT22;5197;48.152;8.590;2023-02-03T04:36:35;3.40;29.40
10304;DHT22;5197;48.152;8.590;2023-02-03T04:39:02;3.40;29.60
10304;DHT22;5197;48.152;8.590;2023-02-03T04:41:29;3.40;29.50
10304;DHT22;5197;48.152;8.590;2023-02-03T04:43:56;3.40;29.70
10304;DHT22;5197;48.152;8.590;2023-02-03T04:46:22;3.40;29.70
10304;DHT22;5197;48.152;8.590;2023-02-03T04:48:49;3.40;29.70
10304;DHT22;5197;48.152;8.590;2023-02-03T04:51:16;3.40;29.80
10304;DHT22;5197;48.152;8.590;2023-02-03T04:53:43;3.50;29.70
10304;DHT22;5197;48.152;8.590;2023-02-03T04:56:09;3.50;29.70
10304;DHT22;5197;48.152;8.590;2023-02-03T04:58:36;3.50;29.60
10304;DHT22;5197;48.152;8.590;2023-02-03T05:01:07;3.50;29.60
10304;DHT22;5197;48.152;8.590;2023-02-03T05:03:35;3.60;29.60
10304;DHT22;5197;48.152;8.590;2023-02-03T05:06:02;3.60;29.50
10304;DHT22;5197;48.152;8.590;2023-02-03T05:08:29;3.70;29.50
10304;DHT22;5197;48.152;8.590;2023-02-03T05:10:56;3.60;29.30
10304;DHT22;5197;48.152;8.590;2023-02-03T05:13:26;3.60;29.10
10304;DHT22;5197;48.152;8.590;2023-02-03T05:15:53;3.70;29.00
10304;DHT22;5197;48.152;8.590;2023-02-03T05:18:24;3.70;28.80
10304;DHT22;5197;48.152;8.590;2023-02-03T05:20:50;3.60;28.70
10304;DHT22;5197;48.152;8.590;2023-02-03T05:23:17;3.60;28.70
10304;DHT22;5197;48.152;8.590;2023-02-03T05:25:44;3.60;28.70
10304;DHT22;5197;48.152;8.590;2023-02-03T05:28:11;3.60;28.60
10304;DHT22;5197;48.152;8.590;2023-02-03T05:30:38;3.60;28.70
10304;DHT22;5197;48.152;8.590;2023-02-03T05:33:05;3.70;28.70
10304;DHT22;5197;48.152;8.590;2023-02-03T05:35:32;3.70;28.70
10304;DHT22;5197;48.152;8.590;2023-02-03T05:37:58;3.70;28.70
10304;DHT22;5197;48.152;8.590;2023-02-03T05:40:26;3.70;28.40
10304;DHT22;5197;48.152;8.590;2023-02-03T05:43:12;3.70;28.30
10304;DHT22;5197;48.152;8.590;2023-02-03T05:45:38;3.70;28.20
10304;DHT22;5197;48.152;8.590;2023-02-03T05:48:05;3.60;28.10
10304;DHT22;5197;48.152;8.590;2023-02-03T05:50:33;3.70;28.00
10304;DHT22;5197;48.152;8.590;2023-02-03T05:53:05;3.60;27.90
10304;DHT22;5197;48.152;8.590;2023-02-03T05:55:32;3.60;27.80
10304;DHT22;5197;48.152;8.590;2023-02-03T05:57:59;3.60;27.70
10304;DHT22;5197;48.152;8.590;2023-02-03T06:00:27;3.60;27.80
10304;DHT22;5197;48.152;8.590;2023-02-03T06:02:56;3.60;28.80
10304;DHT22;5197;48.152;8.590;2023-02-03T06:05:24;3.90;28.00
10304;DHT22;5197;48.152;8.590;2023-02-03T06:07:51;3.60;27.80
10304;DHT22;5197;48.152;8.590;2023-02-03T06:10:18;3.60;27.90
10304;DHT22;5197;48.152;8.590;2023-02-03T06:12:45;3.50;28.00
10304;DHT22;5197;48.152;8.590;2023-02-03T06:15:12;3.60;28.00
10304;DHT22;5197;48.152;8.590;2023-02-03T06:17:39;3.60;27.90
10304;DHT22;5197;48.152;8.590;2023-02-03T06:20:07;3.60;27.90
10304;DHT22;5197;48.152;8.590;2023-02-03T06:22:34;3.70;28.10
10304;DHT22;5197;48.152;8.590;2023-02-03T06:25:01;3.60;27.80
10304;DHT22;5197;48.152;8.590;2023-02-03T06:27:28;3.70;27.90
10304;DHT22;5197;48.152;8.590;2023-02-03T06:29:55;3.60;27.80
10304;DHT22;5197;48.152;8.590;2023-02-03T06:32:22;3.60;27.80
10304;DHT22;5197;48.152;8.590;2023-02-03T06:34:49;3.60;27.70
10304;DHT22;5197;48.152;8.590;2023-02-03T06:37:16;3.70;27.80
10304;DHT22;5197;48.152;8.590;2023-02-03T06:39:43;3.60;27.70
10304;DHT22;5197;48.152;8.590;2023-02-03T06:42:10;3.60;27.80
10304;DHT22;5197;48.152;8.590;2023-02-03T06:44:36;3.60;28.00
10304;DHT22;5197;48.152;8.590;2023-02-03T06:47:04;3.60;27.90
10304;DHT22;5197;48.152;8.590;2023-02-03T06:49:30;3.60;28.10
10304;DHT22;5197;48.152;8.590;2023-02-03T06:51:57;3.60;28.20
10304;DHT22;5197;48.152;8.590;2023-02-03T06:54:24;3.60;28.20
10304;DHT22;5197;48.152;8.590;2023-02-03T06:56:51;3.60;28.40
10304;DHT22;5197;48.152;8.590;2023-02-03T06:59:18;3.50;28.60
10304;DHT22;5197;48.152;8.590;2023-02-03T07:01:45;3.60;28.40
10304;DHT22;5197;48.152;8.590;2023-02-03T07:04:12;4.20;28.80
10304;DHT22;5197;48.152;8.590;2023-02-03T07:06:39;5.20;29.40
10304;DHT22;5197;48.152;8.590;2023-02-03T07:09:06;3.60;28.40
10304;DHT22;5197;48.152;8.590;2023-02-03T07:11:33;3.60;28.40
10304;DHT22;5197;48.152;8.590;2023-02-03T07:14:00;3.50;28.50
10304;DHT22;5197;48.152;8.590;2023-02-03T07:16:27;3.50;28.60
10304;DHT22;5197;48.152;8.590;2023-02-03T07:18:54;3.50;28.60
10304;DHT22;5197;48.152;8.590;2023-02-03T07:21:20;3.50;28.70
10304;DHT22;5197;48.152;8.590;2023-02-03T07:23:48;3.40;28.80
10304;DHT22;5197;48.152;8.590;2023-02-03T07:26:15;3.40;28.90
10304;DHT22;5197;48.152;8.590;2023-02-03T07:28:43;3.50;28.90
10304;DHT22;5197;48.152;8.590;2023-02-03T07:31:10;3.40;29.00
10304;DHT22;5197;48.152;8.590;2023-02-03T07:33:37;3.50;29.10
10304;DHT22;5197;48.152;8.590;2023-02-03T07:36:05;3.50;29.10
10304;DHT22;5197;48.152;8.590;2023-02-03T07:38:32;3.50;29.10
10304;DHT22;5197;48.152;8.590;2023-02-03T07:40:59;3.50;29.40
10304;DHT22;5197;48.152;8.590;2023-02-03T07:43:27;3.60;29.60
10304;DHT22;5197;48.152;8.590;2023-02-03T07:45:54;3.60;29.70
10304;DHT22;5197;48.152;8.590;2023-02-03T07:48:21;3.60;30.10
10304;DHT22;5197;48.152;8.590;2023-02-03T07:50:48;3.70;31.00
10304;DHT22;5197;48.152;8.590;2023-02-03T07:53:16;3.90;32.00
10304;DHT22;5197;48.152;8.590;2023-02-03T07:55:43;4.00;32.30
10304;DHT22;5197;48.152;8.590;2023-02-03T07:58:10;4.20;32.70
10304;DHT22;5197;48.152;8.590;2023-02-03T08:00:37;4.30;32.00
10304;DHT22;5197;48.152;8.590;2023-02-03T08:03:04;4.40;31.80
10304;DHT22;5197;48.152;8.590;2023-02-03T08:05:31;4.40;31.40
10304;DHT22;5197;48.152;8.590;2023-02-03T08:07:58;4.50;31.20
10304;DHT22;5197;48.152;8.590;2023-02-03T08:10:25;4.50;30.80
10304;DHT22;5197;48.152;8.590;2023-02-03T08:12:55;4.60;30.10
10304;DHT22;5197;48.152;8.590;2023-02-03T08:15:22;4.60;29.40
10304;DHT22;5197;48.152;8.590;2023-02-03T08:17:49;4.60;29.30
10304;DHT22;5197;48.152;8.590;2023-02-03T08:20:16;4.60;28.60
10304;DHT22;5197;48.152;8.590;2023-02-03T08:22:43;4.70;28.20
10304;DHT22;5197;48.152;8.590;2023-02-03T08:25:11;4.60;28.10
10304;DHT22;5197;48.152;8.590;2023-02-03T08:27:38;4.60;27.60
10304;DHT22;5197;48.152;8.590;2023-02-03T08:30:08;4.50;27.30
10304;DHT22;5197;48.152;8.590;2023-02-03T08:32:35;4.60;27.50
10304;DHT22;5197;48.152;8.590;2023-02-03T08:35:02;4.60;27.60
10304;DHT22;5197;48.152;8.590;2023-02-03T08:37:29;4.60;27.30
10304;DHT22;5197;48.152;8.590;2023-02-03T08:39:58;4.60;27.30
10304;DHT22;5197;48.152;8.590;2023-02-03T08:42:26;4.60;27.00
10304;DHT22;5197;48.152;8.590;2023-02-03T08:44:53;4.60;26.90
10304;DHT22;5197;48.152;8.590;2023-02-03T08:47:20;4.70;26.70
10304;DHT22;5197;48.152;8.590;2023-02-03T08:49:46;4.70;26.60
10304;DHT22;5197;48.152;8.590;2023-02-03T08:52:14;4.70;26.40
10304;DHT22;5197;48.152;8.590;2023-02-03T08:54:45;4.70;26.40
10304;DHT22;5197;48.152;8.590;2023-02-03T08:57:12;4.70;26.50
10304;DHT22;5197;48.152;8.590;2023-02-03T08:59:40;4.70;26.60
10304;DHT22;5197;48.152;8.590;2023-02-03T09:02:13;4.80;26.40
10304;DHT22;5197;48.152;8.590;2023-02-03T09:04:40;4.80;26.40
10304;DHT22;5197;48.152;8.590;2023-02-03T09:07:07;4.80;26.50
10304;DHT22;5197;48.152;8.590;2023-02-03T09:09:34;4.80;26.20
10304;DHT22;5197;48.152;8.590;2023-02-03T09:12:01;4.90;26.10
10304;DHT22;5197;48.152;8.590;2023-02-03T09:14:29;4.90;26.10
10304;DHT22;5197;48.152;8.590;2023-02-03T09:16:57;4.90;26.30
10304;DHT22;5197;48.152;8.590;2023-02-03T09:19:24;4.90;26.00
10304;DHT22;5197;48.152;8.590;2023-02-03T09:21:51;4.90;26.20
10304;DHT22;5197;48.152;8.590;2023-02-03T09:24:18;5.00;26.40
10304;DHT22;5197;48.152;8.590;2023-02-03T09:26:45;5.00;26.30
10304;DHT22;5197;48.152;8.590;2023-02-03T09:29:12;5.10;26.10
10304;DHT22;5197;48.152;8.590;2023-02-03T09:31:38;5.10;26.00
10304;DHT22;5197;48.152;8.590;2023-02-03T09:34:06;5.20;25.60
10304;DHT22;5197;48.152;8.590;2023-02-03T09:36:33;5.20;25.50
10304;DHT22;5197;48.152;8.590;2023-02-03T09:39:00;5.20;25.30
10304;DHT22;5197;48.152;8.590;2023-02-03T09:44:28;5.30;25.20
10304;DHT22;5197;48.152;8.590;2023-02-03T09:47:03;5.40;24.60
10304;DHT22;5197;48.152;8.590;2023-02-03T09:52:18;5.40;23.50
10304;DHT22;5197;48.152;8.590;2023-02-03T09:55:10;5.40;24.70
10304;DHT22;5197;48.152;8.590;2023-02-03T09:57:47;5.40;25.50
10304;DHT22;5197;48.152;8.590;2023-02-03T10:00:22;5.40;24.80
10304;DHT22;5197;48.152;8.590;2023-02-03T10:02:58;5.50;24.60
10304;DHT22;5197;48.152;8.590;2023-02-03T10:05:41;5.50;24.60
10304;DHT22;5197;48.152;8.590;2023-02-03T10:13:55;5.80;24.80
10304;DHT22;5197;48.152;8.590;2023-02-03T10:16:34;5.90;24.00
10304;DHT22;5197;48.152;8.590;2023-02-03T10:19:10;5.90;23.80
10304;DHT22;5197;48.152;8.590;2023-02-03T10:21:51;6.00;23.70
10304;DHT22;5197;48.152;8.590;2023-02-03T10:24:36;6.00;22.70
10304;DHT22;5197;48.152;8.590;2023-02-03T10:27:18;6.00;22.80
10304;DHT22;5197;48.152;8.590;2023-02-03T10:30:03;6.00;22.70
10304;DHT22;5197;48.152;8.590;2023-02-03T10:32:31;6.00;22.40
10304;DHT22;5197;48.152;8.590;2023-02-03T10:34:59;5.90;22.50
10304;DHT22;5197;48.152;8.590;2023-02-03T10:37:28;5.90;22.40
10304;DHT22;5197;48.152;8.590;2023-02-03T10:40:01;5.90;22.00
10304;DHT22;5197;48.152;8.590;2023-02-03T10:42:29;6.40;18.90
10304;DHT22;5197;48.152;8.590;2023-02-03T10:45:17;6.30;19.10
10304;DHT22;5197;48.152;8.590;2023-02-03T10:47:49;6.00;19.00
10304;DHT22;5197;48.152;8.590;2023-02-03T10:50:21;5.70;16.70
10304;DHT22;5197;48.152;8.590;2023-02-03T10:52:50;5.60;18.80
10304;DHT22;5197;48.152;8.590;2023-02-03T10:57:52;5.60;17.10
10304;DHT22;5197;48.152;8.590;2023-02-03T11:00:31;5.60;18.70
10304;DHT22;5197;48.152;8.590;2023-02-03T11:03:27;5.60;18.80
10304;DHT22;5197;48.152;8.590;2023-02-03T11:06:06;5.70;18.80
10304;DHT22;5197;48.152;8.590;2023-02-03T11:08:35;5.60;17.50
10304;DHT22;5197;48.152;8.590;2023-02-03T11:11:07;5.60;18.70
10304;DHT22;5197;48.152;8.590;2023-02-03T11:13:34;5.70;18.80
10304;DHT22;5197;48.152;8.590;2023-02-03T11:16:09;5.70;18.80
10304;DHT22;5197;48.152;8.590;2023-02-03T11:19:02;5.80;18.80
10304;DHT22;5197;48.152;8.590;2023-02-03T11:27:14;5.90;18.90
10304;DHT22;5197;48.152;8.590;2023-02-03T11:29:47;6.00;18.90
10304;DHT22;5197;48.152;8.590;2023-02-03T11:32:22;6.10;19.10
10304;DHT22;5197;48.152;8.590;2023-02-03T11:34:56;6.20;19.10
10304;DHT22;5197;48.152;8.590;2023-02-03T11:37:44;6.20;18.30
10304;DHT22;5197;48.152;8.590;2023-02-03T11:45:25;6.50;18.30
10304;DHT22;5197;48.152;8.590;2023-02-03T12:07:31;6.90;16.40
10304;DHT22;5197;48.152;8.590;2023-02-03T12:10:24;6.80;14.60
10304;DHT22;5197;48.152;8.590;2023-02-03T12:13:32;6.70;15.50
10304;DHT22;5197;48.152;8.590;2023-02-03T12:16:00;6.60;14.40
10304;DHT22;5197;48.152;8.590;2023-02-03T12:24:13;6.40;15.10
10304;DHT22;5197;48.152;8.590;2023-02-03T12:26:57;6.40;15.60
10304;DHT22;5197;48.152;8.590;2023-02-03T12:29:56;6.40;15.40
10304;DHT22;5197;48.152;8.590;2023-02-03T12:35:22;6.30;14.60
10304;DHT22;5197;48.152;8.590;2023-02-03T12:38:25;6.20;15.20
10304;DHT22;5197;48.152;8.590;2023-02-03T12:40:58;6.20;14.00
10304;DHT22;5197;48.152;8.590;2023-02-03T12:54:38;6.10;15.10
10304;DHT22;5197;48.152;8.590;2023-02-03T12:59:53;6.10;15.80
10304;DHT22;5197;48.152;8.590;2023-02-03T13:02:31;6.10;15.80
10304;DHT22;5197;48.152;8.590;2023-02-03T13:05:07;6.10;14.90
10304;DHT22;5197;48.152;8.590;2023-02-03T13:07:45;6.20;14.90
10304;DHT22;5197;48.152;8.590;2023-02-03T13:10:40;6.10;15.30
10304;DHT22;5197;48.152;8.590;2023-02-03T13:13:14;6.10;14.40
10304;DHT22;5197;48.152;8.590;2023-02-03T13:15:45;6.00;15.30
10304;DHT22;5197;48.152;8.590;2023-02-03T13:18:32;6.00;15.30
10304;DHT22;5197;48.152;8.590;2023-02-03T13:21:00;6.00;14.40
10304;DHT22;5197;48.152;8.590;2023-02-03T13:23:27;6.00;15.40
10304;DHT22;5197;48.152;8.590;2023-02-03T13:26:01;6.00;15.40
10304;DHT22;5197;48.152;8.590;2023-02-03T13:31:36;5.90;14.50
10304;DHT22;5197;48.152;8.590;2023-02-03T13:34:33;5.90;14.50
10304;DHT22;5197;48.152;8.590;2023-02-03T13:40:41;5.90;15.20
10304;DHT22;5197;48.152;8.590;2023-02-03T13:43:17;5.90;14.60
10304;DHT22;5197;48.152;8.590;2023-02-03T13:46:04;5.90;14.20
10304;DHT22;5197;48.152;8.590;2023-02-03T13:48:34;5.90;15.40
10304;DHT22;5197;48.152;8.590;2023-02-03T13:51:06;5.90;15.30
10304;DHT22;5197;48.152;8.590;2023-02-03T13:53:36;5.90;15.00
10304;DHT22;5197;48.152;8.590;2023-02-03T13:56:14;5.90;14.60
10304;DHT22;5197;48.152;8.590;2023-02-03T13:59:04;5.90;14.60
10304;DHT22;5197;48.152;8.590;2023-02-03T14:04:03;5.90;15.10
10304;DHT22;5197;48.152;8.590;2023-02-03T14:23:15;5.90;14.60
10304;DHT22;5197;48.152;8.590;2023-02-03T14:25:55;6.00;14.40
10304;DHT22;5197;48.152;8.590;2023-02-03T14:31:04;5.90;14.70
10304;DHT22;5197;48.152;8.590;2023-02-03T14:36:31;5.80;14.60
10304;DHT22;5197;48.152;8.590;2023-02-03T14:39:29;5.80;15.00
10304;DHT22;5197;48.152;8.590;2023-02-03T14:48:13;5.80;14.70
10304;DHT22;5197;48.152;8.590;2023-02-03T14:59:58;5.70;14.90
10304;DHT22;5197;48.152;8.590;2023-02-03T15:02:28;5.70;15.50
10304;DHT22;5197;48.152;8.590;2023-02-03T15:07:39;5.70;15.50
10304;DHT22;5197;48.152;8.590;2023-02-03T15:10:19;5.70;14.70
10304;DHT22;5197;48.152;8.590;2023-02-03T15:12:52;5.70;16.10
10304;DHT22;5197;48.152;8.590;2023-02-03T15:15:21;5.60;15.30
10304;DHT22;5197;48.152;8.590;2023-02-03T15:17:50;5.70;16.30
10304;DHT22;5197;48.152;8.590;2023-02-03T15:20:39;5.60;16.20
10304;DHT22;5197;48.152;8.590;2023-02-03T15:23:18;5.50;15.50
10304;DHT22;5197;48.152;8.590;2023-02-03T15:25:55;5.50;16.70
10304;DHT22;5197;48.152;8.590;2023-02-03T15:28:23;5.50;16.50
10304;DHT22;5197;48.152;8.590;2023-02-03T15:33:31;5.50;17.30
10304;DHT22;5197;48.152;8.590;2023-02-03T15:36:17;5.50;17.90
10304;DHT22;5197;48.152;8.590;2023-02-03T15:39:12;5.40;17.70
10304;DHT22;5197;48.152;8.590;2023-02-03T15:41:42;5.90;14.20
10304;DHT22;5197;48.152;8.590;2023-02-03T15:44:27;5.70;15.90
10304;DHT22;5197;48.152;8.590;2023-02-03T15:46:57;5.60;16.60
10304;DHT22;5197;48.152;8.590;2023-02-03T15:49:36;5.50;17.30
10304;DHT22;5197;48.152;8.590;2023-02-03T15:52:15;5.40;17.40
10304;DHT22;5197;48.152;8.590;2023-02-03T15:54:46;5.50;18.70
10304;DHT22;5197;48.152;8.590;2023-02-03T15:57:26;5.40;18.10
10304;DHT22;5197;48.152;8.590;2023-02-03T15:59:57;5.40;18.60
10304;DHT22;5197;48.152;8.590;2023-02-03T16:02:32;5.40;18.60
10304;DHT22;5197;48.152;8.590;2023-02-03T16:05:04;5.40;18.60
10304;DHT22;5197;48.152;8.590;2023-02-03T16:07:32;5.40;18.60
10304;DHT22;5197;48.152;8.590;2023-02-03T16:09:59;5.30;18.60
10304;DHT22;5197;48.152;8.590;2023-02-03T16:12:31;5.30;18.60
10304;DHT22;5197;48.152;8.590;2023-02-03T16:15:00;5.30;18.50
10304;DHT22;5197;48.152;8.590;2023-02-03T16:17:37;5.20;18.50
10304;DHT22;5197;48.152;8.590;2023-02-03T16:22:42;5.80;18.90
10304;DHT22;5197;48.152;8.590;2023-02-03T16:25:23;5.10;18.40
10304;DHT22;5197;48.152;8.590;2023-02-03T16:31:14;5.10;18.40
10304;DHT22;5197;48.152;8.590;2023-02-03T16:34:02;5.10;18.40
10304;DHT22;5197;48.152;8.590;2023-02-03T16:36:56;5.00;18.50
10304;DHT22;5197;48.152;8.590;2023-02-03T16:39:41;5.00;19.60
10304;DHT22;5197;48.152;8.590;2023-02-03T16:42:36;5.00;19.70
10304;DHT22;5197;48.152;8.590;2023-02-03T16:45:23;5.00;19.60
10304;DHT22;5197;48.152;8.590;2023-02-03T16:48:10;4.90;19.40
10304;DHT22;5197;48.152;8.590;2023-02-03T16:51:04;5.00;19.70
10304;DHT22;5197;48.152;8.590;2023-02-03T16:53:32;4.90;20.50
10304;DHT22;5197;48.152;8.590;2023-02-03T16:56:01;4.90;20.40
10304;DHT22;5197;48.152;8.590;2023-02-03T16:58:30;4.90;20.40
10304;DHT22;5197;48.152;8.590;2023-02-03T17:01:00;4.90;20.30
10304;DHT22;5197;48.152;8.590;2023-02-03T17:03:28;4.90;20.30
10304;DHT22;5197;48.152;8.590;2023-02-03T17:05:56;4.90;20.10
10304;DHT22;5197;48.152;8.590;2023-02-03T17:08:24;5.00;20.10
10304;DHT22;5197;48.152;8.590;2023-02-03T17:10:53;5.00;19.90
10304;DHT22;5197;48.152;8.590;2023-02-03T17:13:22;5.00;20.30
10304;DHT22;5197;48.152;8.590;2023-02-03T17:15:53;5.00;20.40
10304;DHT22;5197;48.152;8.590;2023-02-03T17:18:20;5.00;20.30
10304;DHT22;5197;48.152;8.590;2023-02-03T17:20:50;5.00;20.30
10304;DHT22;5197;48.152;8.590;2023-02-03T17:23:20;4.90;20.40
10304;DHT22;5197;48.152;8.590;2023-02-03T17:25:51;4.90;20.40
10304;DHT22;5197;48.152;8.590;2023-02-03T17:28:28;4.90;20.50
10304;DHT22;5197;48.152;8.590;2023-02-03T17:31:03;4.90;20.50
10304;DHT22;5197;48.152;8.590;2023-02-03T17:33:32;4.90;20.60
10304;DHT22;5197;48.152;8.590;2023-02-03T17:36:05;4.90;20.80
10304;DHT22;5197;48.152;8.590;2023-02-03T17:38:44;4.80;20.70
10304;DHT22;5197;48.152;8.590;2023-02-03T17:41:28;4.80;20.70
10304;DHT22;5197;48.152;8.590;2023-02-03T17:44:13;4.80;21.40
10304;DHT22;5197;48.152;8.590;2023-02-03T17:46:57;4.80;21.30
10304;DHT22;5197;48.152;8.590;2023-02-03T17:49:41;4.70;21.80
10304;DHT22;5197;48.152;8.590;2023-02-03T17:52:27;4.80;21.80
10304;DHT22;5197;48.152;8.590;2023-02-03T17:55:12;4.70;21.90
10304;DHT22;5197;48.152;8.590;2023-02-03T17:57:38;4.80;21.80
10304;DHT22;5197;48.152;8.590;2023-02-03T18:00:06;4.80;21.60
10304;DHT22;5197;48.152;8.590;2023-02-03T18:02:33;4.80;21.50
10304;DHT22;5197;48.152;8.590;2023-02-03T18:05:00;4.80;22.50
10304;DHT22;5197;48.152;8.590;2023-02-03T18:07:28;4.80;21.20
10304;DHT22;5197;48.152;8.590;2023-02-03T18:09:55;4.90;21.10
10304;DHT22;5197;48.152;8.590;2023-02-03T18:12:22;4.90;21.20
10304;DHT22;5197;48.152;8.590;2023-02-03T18:14:49;4.90;21.10
10304;DHT22;5197;48.152;8.590;2023-02-03T18:17:16;4.80;21.00
10304;DHT22;5197;48.152;8.590;2023-02-03T18:19:43;4.90;21.00
10304;DHT22;5197;48.152;8.590;2023-02-03T18:22:20;4.90;21.20
10304;DHT22;5197;48.152;8.590;2023-02-03T18:24:47;4.90;21.20
10304;DHT22;5197;48.152;8.590;2023-02-03T18:27:18;4.90;21.30
10304;DHT22;5197;48.152;8.590;2023-02-03T18:29:46;4.90;21.50
10304;DHT22;5197;48.152;8.590;2023-02-03T18:32:14;4.90;21.50
10304;DHT22;5197;48.152;8.590;2023-02-03T18:34:42;4.90;21.50
10304;DHT22;5197;48.152;8.590;2023-02-03T18:37:08;4.90;21.50
10304;DHT22;5197;48.152;8.590;2023-02-03T18:39:35;4.90;21.60
10304;DHT22;5197;48.152;8.590;2023-02-03T18:42:03;4.90;22.10
10304;DHT22;5197;48.152;8.590;2023-02-03T18:44:30;5.00;22.20
10304;DHT22;5197;48.152;8.590;2023-02-03T18:46:57;4.90;22.30
10304;DHT22;5197;48.152;8.590;2023-02-03T18:49:34;4.90;22.20
10304;DHT22;5197;48.152;8.590;2023-02-03T18:52:01;4.90;22.50
10304;DHT22;5197;48.152;8.590;2023-02-03T18:54:28;4.90;22.50
10304;DHT22;5197;48.152;8.590;2023-02-03T18:56:56;4.90;22.70
10304;DHT22;5197;48.152;8.590;2023-02-03T18:59:24;4.90;23.50
10304;DHT22;5197;48.152;8.590;2023-02-03T19:01:51;4.80;23.50
10304;DHT22;5197;48.152;8.590;2023-02-03T19:04:19;4.90;23.70
10304;DHT22;5197;48.152;8.590;2023-02-03T19:06:46;4.80;23.90
10304;DHT22;5197;48.152;8.590;2023-02-03T19:09:14;4.90;23.60